Aeroporto :
LOGIN :

Iscrizione | Disclaimer

   EN    FR    IT 

 










Sommario :    VFR   VFR Marginale   IFR   IFR Intensivo   IFR Molto Intensivo
Visibilità : 
Base nubi : 
>= 8 km
>= 3000ft
5 / 8 km
1000 / 3000 ft
1500m / 5 km
500 / 1000 ft
800 / 1500m
200 / 500 ft
< 800m
< 200 ft
Simboli :   Temporali  Nebbia  Neve Forte  Precipitazioni Forti  Vento > 20 kt
SIGMETs :   Varie  Temporali  Ghiacco  Turbolenza  Onda orograficha  Ceneri Vulcaniche






- Altitudine del aeroporto : 464 ft
- Codice IATA : EVX


LFOE - Evreux

ULTIMO METAR :
  • 110200Z AUTO 22011KT 9000 -DZ OVC010 08/07 Q1012 TEMPO 18015G25KT BECMG SCT020 BKN040

METARs OBSOLETI :
  • 110130Z AUTO 24012KT 210V270 9999 OVC011 09/07 Q1012 TEMPO 18015G25KT BECMG SCT020 BKN040
  • 110100Z AUTO 22014KT 9999 OVC012 09/07 Q1012 TEMPO 4000 RADZ BKN005 BECMG 18015G25KT
  • 110030Z AUTO 21014KT 9999 -DZ OVC012 08/07 Q1012 TEMPO 4000 RADZ BKN005 BECMG 18015G25KT
  • 110000Z AUTO 20015KT 9999 OVC013 08/06 Q1012 TEMPO 4000 RADZ BKN005 BECMG 18015G25KT
  • 102330Z AUTO 20016KT 9999 OVC013 08/06 Q1013 TEMPO 4000 RADZ BKN005 BECMG 18015G25KT

TAF AMD TAF LFOE
Valido dal 10 a 22 ore il 11 a 21 ore UTC


102224Z 1022/1121 18015G25KT 9999 OVC014
TEMPO 1023/1102 4000 RADZ BKN005
BECMG 1103/1105 24010KT NSW SCT020 BKN040
TEMPO 1105/1109 BKN005
BECMG 1109/1112 FEW020
BECMG 1117/1119 4000 SHRA BKN030TCU



MetMap, La meteo Aeronautica in un colpo d'occhio ! - Copyright ORBIFLY Dicembre 2007 - Disclaimer

ORBIFLY MET'MAP TEAM :

Programmazione e sviluppo : Alexandra Zaïnal
Concezione : Baudouin d'Aumeries
Aiuto per la programmazione : Marc-Olivier Méhu
Supporto tecnico e logistico : Manuel Goepfert
Aiuto per la traduzione : Arnaldo La Scala

Contatto : metmap@orbifly.com




FONTI E CREDITI :

   NOAA